sensor_id;sensor_type;location;lat;lon;timestamp;P1;durP1;ratioP1;P2;durP2;ratioP2
1414;SDS011;702;49.466;11.086;2023-05-07T00:01:00;2.47;;;2.27;;
1414;SDS011;702;49.466;11.086;2023-05-07T00:03:28;2.00;;;1.80;;
1414;SDS011;702;49.466;11.086;2023-05-07T00:05:57;2.23;;;2.03;;
1414;SDS011;702;49.466;11.086;2023-05-07T00:08:24;2.33;;;2.13;;
1414;SDS011;702;49.466;11.086;2023-05-07T00:10:53;2.33;;;2.07;;
1414;SDS011;702;49.466;11.086;2023-05-07T00:13:23;2.87;;;2.67;;
1414;SDS011;702;49.466;11.086;2023-05-07T00:15:50;2.70;;;2.50;;
1414;SDS011;702;49.466;11.086;2023-05-07T00:18:18;1.73;;;1.63;;
1414;SDS011;702;49.466;11.086;2023-05-07T00:20:47;2.50;;;2.30;;
1414;SDS011;702;49.466;11.086;2023-05-07T00:23:15;2.67;;;2.10;;
1414;SDS011;702;49.466;11.086;2023-05-07T00:25:42;2.40;;;2.10;;
1414;SDS011;702;49.466;11.086;2023-05-07T00:28:10;2.13;;;2.03;;
1414;SDS011;702;49.466;11.086;2023-05-07T00:30:40;2.43;;;2.23;;
1414;SDS011;702;49.466;11.086;2023-05-07T00:33:08;1.80;;;1.70;;
1414;SDS011;702;49.466;11.086;2023-05-07T00:35:35;2.60;;;2.40;;
1414;SDS011;702;49.466;11.086;2023-05-07T00:38:03;2.50;;;2.30;;
1414;SDS011;702;49.466;11.086;2023-05-07T00:40:30;2.43;;;2.07;;
1414;SDS011;702;49.466;11.086;2023-05-07T00:42:57;1.97;;;1.80;;
1414;SDS011;702;49.466;11.086;2023-05-07T00:45:27;2.10;;;1.93;;
1414;SDS011;702;49.466;11.086;2023-05-07T00:48:02;3.20;;;2.90;;
1414;SDS011;702;49.466;11.086;2023-05-07T00:50:30;2.60;;;2.40;;
1414;SDS011;702;49.466;11.086;2023-05-07T00:52:59;1.90;;;1.80;;
1414;SDS011;702;49.466;11.086;2023-05-07T00:55:27;3.07;;;2.50;;
1414;SDS011;702;49.466;11.086;2023-05-07T00:57:55;2.23;;;1.93;;
1414;SDS011;702;49.466;11.086;2023-05-07T01:00:22;2.73;;;2.53;;
1414;SDS011;702;49.466;11.086;2023-05-07T01:02:51;2.30;;;2.10;;
1414;SDS011;702;49.466;11.086;2023-05-07T01:05:20;2.73;;;2.50;;
1414;SDS011;702;49.466;11.086;2023-05-07T01:07:50;2.17;;;1.97;;
1414;SDS011;702;49.466;11.086;2023-05-07T01:10:25;2.43;;;1.90;;
1414;SDS011;702;49.466;11.086;2023-05-07T01:12:55;2.73;;;2.50;;
1414;SDS011;702;49.466;11.086;2023-05-07T01:15:25;2.50;;;2.30;;
1414;SDS011;702;49.466;11.086;2023-05-07T01:17:57;3.33;;;2.40;;
1414;SDS011;702;49.466;11.086;2023-05-07T01:20:24;2.47;;;2.27;;
1414;SDS011;702;49.466;11.086;2023-05-07T01:22:54;2.20;;;2.00;;
1414;SDS011;702;49.466;11.086;2023-05-07T01:25:22;2.40;;;2.20;;
1414;SDS011;702;49.466;11.086;2023-05-07T01:27:52;3.37;;;2.30;;
1414;SDS011;702;49.466;11.086;2023-05-07T01:30:21;2.60;;;2.30;;
1414;SDS011;702;49.466;11.086;2023-05-07T01:32:50;2.10;;;2.00;;
1414;SDS011;702;49.466;11.086;2023-05-07T01:35:24;2.70;;;2.50;;
1414;SDS011;702;49.466;11.086;2023-05-07T01:37:57;2.90;;;2.50;;
1414;SDS011;702;49.466;11.086;2023-05-07T01:40:25;4.17;;;2.40;;
1414;SDS011;702;49.466;11.086;2023-05-07T01:42:53;2.70;;;2.50;;
1414;SDS011;702;49.466;11.086;2023-05-07T01:45:21;2.63;;;2.43;;
1414;SDS011;702;49.466;11.086;2023-05-07T01:47:49;3.40;;;2.80;;
1414;SDS011;702;49.466;11.086;2023-05-07T01:50:17;3.80;;;3.50;;
1414;SDS011;702;49.466;11.086;2023-05-07T01:52:46;3.30;;;2.87;;
1414;SDS011;702;49.466;11.086;2023-05-07T01:55:18;3.07;;;2.87;;
1414;SDS011;702;49.466;11.086;2023-05-07T01:57:45;3.60;;;2.47;;
1414;SDS011;702;49.466;11.086;2023-05-07T02:00:13;5.53;;;3.07;;
1414;SDS011;702;49.466;11.086;2023-05-07T02:02:41;3.43;;;3.13;;
1414;SDS011;702;49.466;11.086;2023-05-07T02:05:08;3.50;;;3.20;;
1414;SDS011;702;49.466;11.086;2023-05-07T02:07:35;3.83;;;3.27;;
1414;SDS011;702;49.466;11.086;2023-05-07T02:10:04;3.70;;;3.40;;
1414;SDS011;702;49.466;11.086;2023-05-07T02:12:34;3.27;;;2.93;;
1414;SDS011;702;49.466;11.086;2023-05-07T02:15:01;3.30;;;3.00;;
1414;SDS011;702;49.466;11.086;2023-05-07T02:17:28;3.23;;;2.90;;
1414;SDS011;702;49.466;11.086;2023-05-07T02:19:56;3.50;;;3.17;;
1414;SDS011;702;49.466;11.086;2023-05-07T02:22:24;3.30;;;3.00;;
1414;SDS011;702;49.466;11.086;2023-05-07T02:24:51;3.20;;;2.90;;
1414;SDS011;702;49.466;11.086;2023-05-07T02:27:18;3.57;;;3.27;;
1414;SDS011;702;49.466;11.086;2023-05-07T02:29:47;3.43;;;2.93;;
1414;SDS011;702;49.466;11.086;2023-05-07T02:32:14;3.90;;;3.40;;
1414;SDS011;702;49.466;11.086;2023-05-07T02:34:42;3.43;;;3.13;;
1414;SDS011;702;49.466;11.086;2023-05-07T02:37:09;3.83;;;3.50;;
1414;SDS011;702;49.466;11.086;2023-05-07T02:39:37;3.73;;;2.90;;
1414;SDS011;702;49.466;11.086;2023-05-07T02:42:04;4.43;;;3.43;;
1414;SDS011;702;49.466;11.086;2023-05-07T02:44:31;3.93;;;3.63;;
1414;SDS011;702;49.466;11.086;2023-05-07T02:47:02;3.83;;;3.43;;
1414;SDS011;702;49.466;11.086;2023-05-07T02:49:33;6.23;;;4.30;;
1414;SDS011;702;49.466;11.086;2023-05-07T02:52:01;5.57;;;3.70;;
1414;SDS011;702;49.466;11.086;2023-05-07T02:54:28;3.77;;;3.40;;
1414;SDS011;702;49.466;11.086;2023-05-07T02:56:56;4.53;;;3.40;;
1414;SDS011;702;49.466;11.086;2023-05-07T02:59:23;5.07;;;4.53;;
1414;SDS011;702;49.466;11.086;2023-05-07T03:01:51;5.00;;;4.20;;
1414;SDS011;702;49.466;11.086;2023-05-07T03:04:20;5.03;;;4.53;;
1414;SDS011;702;49.466;11.086;2023-05-07T03:06:47;4.70;;;4.10;;
1414;SDS011;702;49.466;11.086;2023-05-07T03:09:14;5.77;;;5.00;;
1414;SDS011;702;49.466;11.086;2023-05-07T03:11:42;5.90;;;4.50;;
1414;SDS011;702;49.466;11.086;2023-05-07T03:14:09;4.30;;;3.90;;
1414;SDS011;702;49.466;11.086;2023-05-07T03:16:37;4.77;;;4.37;;
1414;SDS011;702;49.466;11.086;2023-05-07T03:19:07;4.47;;;4.07;;
1414;SDS011;702;49.466;11.086;2023-05-07T03:21:36;5.20;;;4.60;;
1414;SDS011;702;49.466;11.086;2023-05-07T03:24:04;6.00;;;4.90;;
1414;SDS011;702;49.466;11.086;2023-05-07T03:26:32;5.83;;;4.50;;
1414;SDS011;702;49.466;11.086;2023-05-07T03:28:59;6.87;;;4.80;;
1414;SDS011;702;49.466;11.086;2023-05-07T03:31:26;5.93;;;4.40;;
1414;SDS011;702;49.466;11.086;2023-05-07T03:33:54;4.50;;;4.10;;
1414;SDS011;702;49.466;11.086;2023-05-07T03:36:23;5.50;;;4.87;;
1414;SDS011;702;49.466;11.086;2023-05-07T03:38:53;6.03;;;5.40;;
1414;SDS011;702;49.466;11.086;2023-05-07T03:41:20;6.43;;;5.50;;
1414;SDS011;702;49.466;11.086;2023-05-07T03:43:47;5.53;;;5.03;;
1414;SDS011;702;49.466;11.086;2023-05-07T03:46:15;5.40;;;4.87;;
1414;SDS011;702;49.466;11.086;2023-05-07T03:48:42;6.53;;;4.97;;
1414;SDS011;702;49.466;11.086;2023-05-07T03:51:09;5.73;;;4.73;;
1414;SDS011;702;49.466;11.086;2023-05-07T03:53:37;7.60;;;4.63;;
1414;SDS011;702;49.466;11.086;2023-05-07T03:56:06;5.80;;;5.20;;
1414;SDS011;702;49.466;11.086;2023-05-07T03:58:33;6.60;;;5.17;;
1414;SDS011;702;49.466;11.086;2023-05-07T04:01:00;6.20;;;5.10;;
1414;SDS011;702;49.466;11.086;2023-05-07T04:03:27;5.77;;;4.50;;
1414;SDS011;702;49.466;11.086;2023-05-07T04:05:55;6.00;;;5.30;;
1414;SDS011;702;49.466;11.086;2023-05-07T04:08:23;5.70;;;5.10;;
1414;SDS011;702;49.466;11.086;2023-05-07T04:10:54;6.87;;;4.50;;
1414;SDS011;702;49.466;11.086;2023-05-07T04:13:23;5.27;;;4.73;;
1414;SDS011;702;49.466;11.086;2023-05-07T04:15:51;5.77;;;5.00;;
1414;SDS011;702;49.466;11.086;2023-05-07T04:18:19;5.33;;;4.87;;
1414;SDS011;702;49.466;11.086;2023-05-07T04:20:46;5.73;;;5.23;;
1414;SDS011;702;49.466;11.086;2023-05-07T04:23:15;5.53;;;4.97;;
1414;SDS011;702;49.466;11.086;2023-05-07T04:25:43;5.40;;;4.90;;
1414;SDS011;702;49.466;11.086;2023-05-07T04:28:10;6.90;;;5.27;;
1414;SDS011;702;49.466;11.086;2023-05-07T04:30:39;5.73;;;5.13;;
1414;SDS011;702;49.466;11.086;2023-05-07T04:33:07;5.10;;;4.70;;
1414;SDS011;702;49.466;11.086;2023-05-07T04:35:34;6.90;;;5.87;;
1414;SDS011;702;49.466;11.086;2023-05-07T04:38:03;5.47;;;4.97;;
1414;SDS011;702;49.466;11.086;2023-05-07T04:40:30;6.00;;;5.27;;
1414;SDS011;702;49.466;11.086;2023-05-07T04:42:57;5.97;;;5.40;;
1414;SDS011;702;49.466;11.086;2023-05-07T04:45:25;5.30;;;4.80;;
1414;SDS011;702;49.466;11.086;2023-05-07T04:47:54;5.93;;;4.77;;
1414;SDS011;702;49.466;11.086;2023-05-07T04:50:22;6.50;;;5.73;;
1414;SDS011;702;49.466;11.086;2023-05-07T04:52:50;7.03;;;6.30;;
1414;SDS011;702;49.466;11.086;2023-05-07T04:55:17;7.27;;;5.47;;
1414;SDS011;702;49.466;11.086;2023-05-07T04:57:45;6.87;;;5.23;;
1414;SDS011;702;49.466;11.086;2023-05-07T05:00:15;5.63;;;5.03;;
1414;SDS011;702;49.466;11.086;2023-05-07T05:02:44;7.00;;;5.57;;
1414;SDS011;702;49.466;11.086;2023-05-07T05:05:13;6.10;;;5.50;;
1414;SDS011;702;49.466;11.086;2023-05-07T05:08:01;5.80;;;5.30;;
1414;SDS011;702;49.466;11.086;2023-05-07T05:10:28;5.80;;;5.03;;
1414;SDS011;702;49.466;11.086;2023-05-07T05:12:56;5.67;;;5.07;;
1414;SDS011;702;49.466;11.086;2023-05-07T05:15:23;6.73;;;6.07;;
1414;SDS011;702;49.466;11.086;2023-05-07T05:17:52;5.73;;;5.20;;
1414;SDS011;702;49.466;11.086;2023-05-07T05:20:20;6.33;;;5.73;;
1414;SDS011;702;49.466;11.086;2023-05-07T05:22:48;5.97;;;5.43;;
1414;SDS011;702;49.466;11.086;2023-05-07T05:25:15;6.03;;;5.43;;
1414;SDS011;702;49.466;11.086;2023-05-07T05:27:42;6.27;;;5.47;;
1414;SDS011;702;49.466;11.086;2023-05-07T05:30:10;6.17;;;5.47;;
1414;SDS011;702;49.466;11.086;2023-05-07T05:32:38;6.30;;;5.70;;
1414;SDS011;702;49.466;11.086;2023-05-07T05:35:06;6.83;;;6.20;;
1414;SDS011;702;49.466;11.086;2023-05-07T05:37:35;5.73;;;5.13;;
1414;SDS011;702;49.466;11.086;2023-05-07T05:40:03;6.17;;;5.67;;
1414;SDS011;702;49.466;11.086;2023-05-07T05:42:32;7.17;;;6.07;;
1414;SDS011;702;49.466;11.086;2023-05-07T05:44:59;6.30;;;5.70;;
1414;SDS011;702;49.466;11.086;2023-05-07T05:47:26;6.10;;;5.30;;
1414;SDS011;702;49.466;11.086;2023-05-07T05:49:53;7.47;;;6.70;;
1414;SDS011;702;49.466;11.086;2023-05-07T05:52:21;7.33;;;6.13;;
1414;SDS011;702;49.466;11.086;2023-05-07T05:54:50;6.63;;;6.03;;
1414;SDS011;702;49.466;11.086;2023-05-07T05:57:17;7.17;;;6.47;;
1414;SDS011;702;49.466;11.086;2023-05-07T05:59:45;6.80;;;6.10;;
1414;SDS011;702;49.466;11.086;2023-05-07T06:02:12;7.30;;;6.20;;
1414;SDS011;702;49.466;11.086;2023-05-07T06:04:39;7.27;;;6.53;;
1414;SDS011;702;49.466;11.086;2023-05-07T06:07:07;6.50;;;5.80;;
1414;SDS011;702;49.466;11.086;2023-05-07T06:09:35;6.07;;;5.50;;
1414;SDS011;702;49.466;11.086;2023-05-07T06:12:04;6.33;;;5.73;;
1414;SDS011;702;49.466;11.086;2023-05-07T06:14:32;6.57;;;5.90;;
1414;SDS011;702;49.466;11.086;2023-05-07T06:16:59;6.37;;;5.77;;
1414;SDS011;702;49.466;11.086;2023-05-07T06:19:26;6.77;;;6.07;;
1414;SDS011;702;49.466;11.086;2023-05-07T06:21:54;7.30;;;6.60;;
1414;SDS011;702;49.466;11.086;2023-05-07T06:24:22;5.73;;;5.23;;
1414;SDS011;702;49.466;11.086;2023-05-07T06:26:50;6.30;;;5.70;;
1414;SDS011;702;49.466;11.086;2023-05-07T06:29:19;13.23;;;5.83;;
1414;SDS011;702;49.466;11.086;2023-05-07T06:31:47;7.20;;;6.50;;
1414;SDS011;702;49.466;11.086;2023-05-07T06:34:14;5.80;;;5.20;;
1414;SDS011;702;49.466;11.086;2023-05-07T06:36:41;6.80;;;6.10;;
1414;SDS011;702;49.466;11.086;2023-05-07T06:39:09;6.33;;;5.70;;
1414;SDS011;702;49.466;11.086;2023-05-07T06:41:36;6.37;;;5.77;;
1414;SDS011;702;49.466;11.086;2023-05-07T06:44:04;6.80;;;6.10;;
1414;SDS011;702;49.466;11.086;2023-05-07T06:46:33;6.17;;;5.57;;
1414;SDS011;702;49.466;11.086;2023-05-07T06:49:00;6.20;;;5.60;;
1414;SDS011;702;49.466;11.086;2023-05-07T06:51:27;6.70;;;6.07;;
1414;SDS011;702;49.466;11.086;2023-05-07T06:53:55;6.90;;;6.20;;
1414;SDS011;702;49.466;11.086;2023-05-07T06:56:22;7.73;;;6.27;;
1414;SDS011;702;49.466;11.086;2023-05-07T06:58:50;6.67;;;5.97;;
1414;SDS011;702;49.466;11.086;2023-05-07T07:01:17;7.20;;;5.87;;
1414;SDS011;702;49.466;11.086;2023-05-07T07:03:46;7.67;;;6.87;;
1414;SDS011;702;49.466;11.086;2023-05-07T07:06:14;7.03;;;6.17;;
1414;SDS011;702;49.466;11.086;2023-05-07T07:08:41;6.50;;;5.60;;
1414;SDS011;702;49.466;11.086;2023-05-07T07:11:08;6.57;;;5.97;;
1414;SDS011;702;49.466;11.086;2023-05-07T07:13:36;6.60;;;6.00;;
1414;SDS011;702;49.466;11.086;2023-05-07T07:16:03;7.00;;;6.30;;
1414;SDS011;702;49.466;11.086;2023-05-07T07:18:31;8.37;;;5.30;;
1414;SDS011;702;49.466;11.086;2023-05-07T07:21:00;6.70;;;6.00;;
1414;SDS011;702;49.466;11.086;2023-05-07T07:23:27;6.10;;;5.60;;
1414;SDS011;702;49.466;11.086;2023-05-07T07:25:54;6.50;;;5.90;;
1414;SDS011;702;49.466;11.086;2023-05-07T07:28:21;6.53;;;5.90;;
1414;SDS011;702;49.466;11.086;2023-05-07T07:30:49;6.00;;;5.40;;
1414;SDS011;702;49.466;11.086;2023-05-07T07:33:16;5.83;;;5.23;;
1414;SDS011;702;49.466;11.086;2023-05-07T07:35:44;7.07;;;5.50;;
1414;SDS011;702;49.466;11.086;2023-05-07T07:38:14;6.17;;;5.57;;
1414;SDS011;702;49.466;11.086;2023-05-07T07:40:47;6.13;;;5.53;;
1414;SDS011;702;49.466;11.086;2023-05-07T07:43:14;6.10;;;5.57;;
1414;SDS011;702;49.466;11.086;2023-05-07T07:45:41;7.33;;;5.80;;
1414;SDS011;702;49.466;11.086;2023-05-07T07:48:09;5.90;;;5.40;;
1414;SDS011;702;49.466;11.086;2023-05-07T07:50:37;5.20;;;4.70;;
1414;SDS011;702;49.466;11.086;2023-05-07T07:53:04;5.47;;;4.97;;
1414;SDS011;702;49.466;11.086;2023-05-07T07:55:34;5.60;;;5.10;;
1414;SDS011;702;49.466;11.086;2023-05-07T07:58:05;5.87;;;5.27;;
1414;SDS011;702;49.466;11.086;2023-05-07T08:00:32;5.77;;;5.20;;
1414;SDS011;702;49.466;11.086;2023-05-07T08:02:59;6.00;;;5.40;;
1414;SDS011;702;49.466;11.086;2023-05-07T08:05:28;6.00;;;5.47;;
1414;SDS011;702;49.466;11.086;2023-05-07T08:07:55;5.93;;;5.17;;
1414;SDS011;702;49.466;11.086;2023-05-07T08:10:23;4.67;;;4.27;;
1414;SDS011;702;49.466;11.086;2023-05-07T08:12:52;7.40;;;5.57;;
1414;SDS011;702;49.466;11.086;2023-05-07T08:15:19;5.17;;;4.67;;
1414;SDS011;702;49.466;11.086;2023-05-07T08:17:47;5.97;;;5.37;;
1414;SDS011;702;49.466;11.086;2023-05-07T08:20:14;5.23;;;4.80;;
1414;SDS011;702;49.466;11.086;2023-05-07T08:22:41;5.40;;;4.90;;
1414;SDS011;702;49.466;11.086;2023-05-07T08:25:08;5.53;;;4.60;;
1414;SDS011;702;49.466;11.086;2023-05-07T08:27:35;6.23;;;4.87;;
1414;SDS011;702;49.466;11.086;2023-05-07T08:30:04;4.97;;;4.50;;
1414;SDS011;702;49.466;11.086;2023-05-07T08:32:33;5.43;;;4.93;;
1414;SDS011;702;49.466;11.086;2023-05-07T08:35:01;5.87;;;5.37;;
1414;SDS011;702;49.466;11.086;2023-05-07T08:37:28;5.33;;;4.93;;
1414;SDS011;702;49.466;11.086;2023-05-07T08:39:55;5.47;;;4.97;;
1414;SDS011;702;49.466;11.086;2023-05-07T08:42:23;5.30;;;4.80;;
1414;SDS011;702;49.466;11.086;2023-05-07T08:44:51;5.20;;;4.43;;
1414;SDS011;702;49.466;11.086;2023-05-07T08:47:31;7.00;;;4.67;;
1414;SDS011;702;49.466;11.086;2023-05-07T08:50:07;4.87;;;4.40;;
1414;SDS011;702;49.466;11.086;2023-05-07T08:52:35;5.27;;;4.77;;
1414;SDS011;702;49.466;11.086;2023-05-07T08:55:03;5.17;;;4.67;;
1414;SDS011;702;49.466;11.086;2023-05-07T08:57:32;5.00;;;4.50;;
1414;SDS011;702;49.466;11.086;2023-05-07T09:00:00;4.57;;;4.17;;
1414;SDS011;702;49.466;11.086;2023-05-07T09:02:29;5.13;;;4.67;;
1414;SDS011;702;49.466;11.086;2023-05-07T09:04:56;5.90;;;5.40;;
1414;SDS011;702;49.466;11.086;2023-05-07T09:07:24;4.77;;;4.37;;
1414;SDS011;702;49.466;11.086;2023-05-07T09:09:52;5.30;;;4.87;;
1414;SDS011;702;49.466;11.086;2023-05-07T09:12:20;5.00;;;4.50;;
1414;SDS011;702;49.466;11.086;2023-05-07T09:14:48;4.73;;;4.33;;
1414;SDS011;702;49.466;11.086;2023-05-07T09:17:16;5.60;;;5.10;;
1414;SDS011;702;49.466;11.086;2023-05-07T09:19:45;4.83;;;4.43;;
1414;SDS011;702;49.466;11.086;2023-05-07T09:22:12;4.80;;;4.40;;
1414;SDS011;702;49.466;11.086;2023-05-07T09:24:39;5.17;;;4.57;;
1414;SDS011;702;49.466;11.086;2023-05-07T09:27:07;5.53;;;5.03;;
1414;SDS011;702;49.466;11.086;2023-05-07T09:29:38;5.00;;;4.60;;
1414;SDS011;702;49.466;11.086;2023-05-07T09:32:06;5.50;;;4.87;;
1414;SDS011;702;49.466;11.086;2023-05-07T09:34:35;5.20;;;4.70;;
1414;SDS011;702;49.466;11.086;2023-05-07T09:37:06;4.57;;;4.20;;
1414;SDS011;702;49.466;11.086;2023-05-07T09:39:40;4.77;;;4.27;;
1414;SDS011;702;49.466;11.086;2023-05-07T09:42:08;4.73;;;4.30;;
1414;SDS011;702;49.466;11.086;2023-05-07T09:44:37;5.10;;;4.63;;
1414;SDS011;702;49.466;11.086;2023-05-07T09:47:05;5.33;;;4.93;;
1414;SDS011;702;49.466;11.086;2023-05-07T09:49:33;4.27;;;3.97;;
1414;SDS011;702;49.466;11.086;2023-05-07T09:52:03;6.90;;;4.13;;
1414;SDS011;702;49.466;11.086;2023-05-07T09:54:35;5.17;;;4.67;;
1414;SDS011;702;49.466;11.086;2023-05-07T09:57:04;4.53;;;4.13;;
1414;SDS011;702;49.466;11.086;2023-05-07T09:59:32;4.33;;;3.93;;
1414;SDS011;702;49.466;11.086;2023-05-07T10:02:00;3.93;;;3.53;;
1414;SDS011;702;49.466;11.086;2023-05-07T10:04:29;4.50;;;4.10;;
1414;SDS011;702;49.466;11.086;2023-05-07T10:06:58;4.20;;;3.90;;
1414;SDS011;702;49.466;11.086;2023-05-07T10:09:27;4.77;;;4.37;;
1414;SDS011;702;49.466;11.086;2023-05-07T10:11:55;4.57;;;4.17;;
1414;SDS011;702;49.466;11.086;2023-05-07T10:14:23;5.13;;;4.63;;
1414;SDS011;702;49.466;11.086;2023-05-07T10:16:52;3.97;;;3.67;;
1414;SDS011;702;49.466;11.086;2023-05-07T10:19:21;4.00;;;3.70;;
1414;SDS011;702;49.466;11.086;2023-05-07T10:21:51;4.20;;;3.80;;
1414;SDS011;702;49.466;11.086;2023-05-07T10:24:25;4.37;;;3.97;;
1414;SDS011;702;49.466;11.086;2023-05-07T10:26:55;3.83;;;3.53;;
1414;SDS011;702;49.466;11.086;2023-05-07T10:29:29;4.87;;;4.40;;
1414;SDS011;702;49.466;11.086;2023-05-07T10:32:09;4.27;;;3.87;;
1414;SDS011;702;49.466;11.086;2023-05-07T10:34:56;4.13;;;3.73;;
1414;SDS011;702;49.466;11.086;2023-05-07T10:37:28;4.50;;;4.10;;
1414;SDS011;702;49.466;11.086;2023-05-07T10:39:58;4.17;;;3.87;;
1414;SDS011;702;49.466;11.086;2023-05-07T10:42:25;4.07;;;3.23;;
1414;SDS011;702;49.466;11.086;2023-05-07T10:44:52;3.80;;;3.50;;
1414;SDS011;702;49.466;11.086;2023-05-07T10:47:20;3.67;;;3.20;;
1414;SDS011;702;49.466;11.086;2023-05-07T10:58:55;4.13;;;3.73;;
1414;SDS011;702;49.466;11.086;2023-05-07T11:02:01;4.07;;;3.77;;
1414;SDS011;702;49.466;11.086;2023-05-07T11:04:31;3.77;;;3.47;;
1414;SDS011;702;49.466;11.086;2023-05-07T11:07:21;3.80;;;3.50;;
1414;SDS011;702;49.466;11.086;2023-05-07T11:09:56;3.90;;;3.60;;
1414;SDS011;702;49.466;11.086;2023-05-07T11:12:49;4.63;;;3.60;;
1414;SDS011;702;49.466;11.086;2023-05-07T11:15:40;3.67;;;3.37;;
1414;SDS011;702;49.466;11.086;2023-05-07T11:18:10;4.03;;;3.60;;
1414;SDS011;702;49.466;11.086;2023-05-07T11:20:51;3.87;;;3.47;;
1414;SDS011;702;49.466;11.086;2023-05-07T11:26:25;3.33;;;3.13;;
1414;SDS011;702;49.466;11.086;2023-05-07T11:28:56;3.93;;;3.63;;
1414;SDS011;702;49.466;11.086;2023-05-07T11:31:26;3.93;;;3.63;;
1414;SDS011;702;49.466;11.086;2023-05-07T11:33:55;3.37;;;3.07;;
1414;SDS011;702;49.466;11.086;2023-05-07T11:36:23;3.57;;;3.27;;
1414;SDS011;702;49.466;11.086;2023-05-07T11:38:51;3.07;;;2.83;;
1414;SDS011;702;49.466;11.086;2023-05-07T11:41:18;2.90;;;2.70;;
1414;SDS011;702;49.466;11.086;2023-05-07T11:43:57;3.40;;;3.10;;
1414;SDS011;702;49.466;11.086;2023-05-07T11:46:26;3.40;;;3.10;;
1414;SDS011;702;49.466;11.086;2023-05-07T11:48:56;3.10;;;2.90;;
1414;SDS011;702;49.466;11.086;2023-05-07T11:51:24;3.07;;;2.67;;
1414;SDS011;702;49.466;11.086;2023-05-07T11:53:56;7.37;;;3.20;;
1414;SDS011;702;49.466;11.086;2023-05-07T11:56:23;2.87;;;2.60;;
1414;SDS011;702;49.466;11.086;2023-05-07T11:58:50;3.27;;;2.97;;
1414;SDS011;702;49.466;11.086;2023-05-07T12:01:19;2.93;;;2.73;;
1414;SDS011;702;49.466;11.086;2023-05-07T12:03:49;3.10;;;2.90;;
1414;SDS011;702;49.466;11.086;2023-05-07T12:06:16;2.90;;;2.70;;
1414;SDS011;702;49.466;11.086;2023-05-07T12:08:45;2.90;;;2.60;;
1414;SDS011;702;49.466;11.086;2023-05-07T12:11:13;3.23;;;3.03;;
1414;SDS011;702;49.466;11.086;2023-05-07T12:13:43;2.80;;;2.60;;
1414;SDS011;702;49.466;11.086;2023-05-07T12:16:10;3.17;;;2.87;;
1414;SDS011;702;49.466;11.086;2023-05-07T12:18:40;3.03;;;2.83;;
1414;SDS011;702;49.466;11.086;2023-05-07T12:21:08;3.23;;;3.03;;
1414;SDS011;702;49.466;11.086;2023-05-07T12:23:36;3.50;;;3.30;;
1414;SDS011;702;49.466;11.086;2023-05-07T12:26:04;3.00;;;2.80;;
1414;SDS011;702;49.466;11.086;2023-05-07T12:28:35;3.30;;;3.00;;
1414;SDS011;702;49.466;11.086;2023-05-07T12:31:04;3.93;;;3.63;;
1414;SDS011;702;49.466;11.086;2023-05-07T12:33:32;3.97;;;3.30;;
1414;SDS011;702;49.466;11.086;2023-05-07T12:36:06;4.20;;;3.50;;
1414;SDS011;702;49.466;11.086;2023-05-07T12:38:35;3.60;;;3.23;;
1414;SDS011;702;49.466;11.086;2023-05-07T12:41:04;3.40;;;3.10;;
1414;SDS011;702;49.466;11.086;2023-05-07T12:43:33;3.23;;;2.93;;
1414;SDS011;702;49.466;11.086;2023-05-07T12:46:01;3.30;;;3.10;;
1414;SDS011;702;49.466;11.086;2023-05-07T12:48:30;3.40;;;3.10;;
1414;SDS011;702;49.466;11.086;2023-05-07T12:50:59;3.10;;;2.90;;
1414;SDS011;702;49.466;11.086;2023-05-07T12:53:29;3.63;;;2.93;;
1414;SDS011;702;49.466;11.086;2023-05-07T12:55:57;3.40;;;3.10;;
1414;SDS011;702;49.466;11.086;2023-05-07T12:58:26;2.90;;;2.47;;
1414;SDS011;702;49.466;11.086;2023-05-07T13:00:56;3.27;;;2.97;;
1414;SDS011;702;49.466;11.086;2023-05-07T13:03:26;3.47;;;3.17;;
1414;SDS011;702;49.466;11.086;2023-05-07T13:05:55;3.17;;;2.90;;
1414;SDS011;702;49.466;11.086;2023-05-07T13:08:26;3.33;;;3.03;;
1414;SDS011;702;49.466;11.086;2023-05-07T13:10:57;2.80;;;2.60;;
1414;SDS011;702;49.466;11.086;2023-05-07T13:13:28;2.90;;;2.70;;
1414;SDS011;702;49.466;11.086;2023-05-07T13:15:55;4.37;;;2.80;;
1414;SDS011;702;49.466;11.086;2023-05-07T13:18:24;3.70;;;3.40;;
1414;SDS011;702;49.466;11.086;2023-05-07T13:20:51;3.47;;;3.27;;
1414;SDS011;702;49.466;11.086;2023-05-07T13:23:19;3.50;;;3.20;;
1414;SDS011;702;49.466;11.086;2023-05-07T13:25:48;2.73;;;2.53;;
1414;SDS011;702;49.466;11.086;2023-05-07T13:28:17;4.27;;;3.27;;
1414;SDS011;702;49.466;11.086;2023-05-07T13:30:46;2.97;;;2.70;;
1414;SDS011;702;49.466;11.086;2023-05-07T13:33:14;3.37;;;3.07;;
1414;SDS011;702;49.466;11.086;2023-05-07T13:35:41;2.47;;;2.30;;
1414;SDS011;702;49.466;11.086;2023-05-07T13:38:09;2.90;;;2.20;;
1414;SDS011;702;49.466;11.086;2023-05-07T13:40:36;3.00;;;2.80;;
1414;SDS011;702;49.466;11.086;2023-05-07T13:43:05;2.60;;;2.40;;
1414;SDS011;702;49.466;11.086;2023-05-07T13:45:33;3.30;;;3.00;;
1414;SDS011;702;49.466;11.086;2023-05-07T13:48:00;2.70;;;2.50;;
1414;SDS011;702;49.466;11.086;2023-05-07T13:50:27;2.53;;;2.33;;
1414;SDS011;702;49.466;11.086;2023-05-07T13:52:55;3.30;;;3.03;;
1414;SDS011;702;49.466;11.086;2023-05-07T13:55:23;3.20;;;2.90;;
1414;SDS011;702;49.466;11.086;2023-05-07T13:57:54;2.80;;;2.60;;
1414;SDS011;702;49.466;11.086;2023-05-07T14:00:24;2.50;;;2.30;;
1414;SDS011;702;49.466;11.086;2023-05-07T14:02:52;3.03;;;2.83;;
1414;SDS011;702;49.466;11.086;2023-05-07T14:05:19;3.20;;;2.90;;
1414;SDS011;702;49.466;11.086;2023-05-07T14:07:48;2.80;;;2.60;;
1414;SDS011;702;49.466;11.086;2023-05-07T14:10:16;3.00;;;2.80;;
1414;SDS011;702;49.466;11.086;2023-05-07T14:12:44;2.90;;;2.53;;
1414;SDS011;702;49.466;11.086;2023-05-07T14:15:14;3.33;;;3.03;;
1414;SDS011;702;49.466;11.086;2023-05-07T14:17:42;2.97;;;2.77;;
1414;SDS011;702;49.466;11.086;2023-05-07T14:20:12;2.80;;;2.60;;
1414;SDS011;702;49.466;11.086;2023-05-07T14:22:39;2.90;;;2.70;;
1414;SDS011;702;49.466;11.086;2023-05-07T14:25:07;3.17;;;2.97;;
1414;SDS011;702;49.466;11.086;2023-05-07T14:27:36;3.23;;;2.93;;
1414;SDS011;702;49.466;11.086;2023-05-07T14:30:03;3.27;;;2.90;;
1414;SDS011;702;49.466;11.086;2023-05-07T14:32:32;3.57;;;3.27;;
1414;SDS011;702;49.466;11.086;2023-05-07T14:35:01;3.43;;;3.13;;
1414;SDS011;702;49.466;11.086;2023-05-07T14:37:29;3.40;;;3.10;;
1414;SDS011;702;49.466;11.086;2023-05-07T14:39:56;3.37;;;3.07;;
1414;SDS011;702;49.466;11.086;2023-05-07T14:42:23;3.53;;;3.23;;
1414;SDS011;702;49.466;11.086;2023-05-07T14:44:51;3.60;;;3.30;;
1414;SDS011;702;49.466;11.086;2023-05-07T14:47:18;3.37;;;2.47;;
1414;SDS011;702;49.466;11.086;2023-05-07T14:49:46;3.50;;;3.10;;
1414;SDS011;702;49.466;11.086;2023-05-07T14:52:15;3.30;;;3.00;;
1414;SDS011;702;49.466;11.086;2023-05-07T14:54:42;3.30;;;2.83;;
1414;SDS011;702;49.466;11.086;2023-05-07T14:57:10;3.30;;;3.00;;
1414;SDS011;702;49.466;11.086;2023-05-07T14:59:41;3.57;;;3.27;;
1414;SDS011;702;49.466;11.086;2023-05-07T15:02:09;4.00;;;2.97;;
1414;SDS011;702;49.466;11.086;2023-05-07T15:04:37;3.53;;;3.23;;
1414;SDS011;702;49.466;11.086;2023-05-07T15:07:11;3.63;;;3.33;;
1414;SDS011;702;49.466;11.086;2023-05-07T15:09:41;4.00;;;3.27;;
1414;SDS011;702;49.466;11.086;2023-05-07T15:12:09;3.80;;;3.40;;
1414;SDS011;702;49.466;11.086;2023-05-07T15:14:36;4.50;;;3.97;;
1414;SDS011;702;49.466;11.086;2023-05-07T15:17:04;3.50;;;3.20;;
1414;SDS011;702;49.466;11.086;2023-05-07T15:19:32;3.63;;;3.30;;
1414;SDS011;702;49.466;11.086;2023-05-07T15:21:59;4.00;;;3.57;;
1414;SDS011;702;49.466;11.086;2023-05-07T15:24:27;3.50;;;3.20;;
1414;SDS011;702;49.466;11.086;2023-05-07T15:26:58;3.73;;;3.43;;
1414;SDS011;702;49.466;11.086;2023-05-07T15:29:28;3.87;;;3.57;;
1414;SDS011;702;49.466;11.086;2023-05-07T15:31:55;3.37;;;3.07;;
1414;SDS011;702;49.466;11.086;2023-05-07T15:34:23;3.83;;;3.53;;
1414;SDS011;702;49.466;11.086;2023-05-07T15:36:50;3.60;;;3.30;;